sensor_id;sensor_type;location;lat;lon;timestamp;temperature;humidity
49441;DHT22;35317;51.978;6.296;2023-06-19T00:03:37;22.60;64.60
49441;DHT22;35317;51.978;6.296;2023-06-19T00:08:38;22.60;65.10
49441;DHT22;35317;51.978;6.296;2023-06-19T00:13:41;22.50;65.40
49441;DHT22;35317;51.978;6.296;2023-06-19T00:18:42;22.50;65.80
49441;DHT22;35317;51.978;6.296;2023-06-19T00:23:43;22.40;66.00
49441;DHT22;35317;51.978;6.296;2023-06-19T00:28:44;22.40;66.20
49441;DHT22;35317;51.978;6.296;2023-06-19T00:33:45;22.40;67.00
49441;DHT22;35317;51.978;6.296;2023-06-19T00:38:48;22.40;66.70
49441;DHT22;35317;51.978;6.296;2023-06-19T00:43:48;22.50;67.00
49441;DHT22;35317;51.978;6.296;2023-06-19T00:48:49;22.50;67.30
49441;DHT22;35317;51.978;6.296;2023-06-19T00:53:50;22.50;67.40
49441;DHT22;35317;51.978;6.296;2023-06-19T00:58:52;22.60;67.70
49441;DHT22;35317;51.978;6.296;2023-06-19T01:03:53;22.70;68.10
49441;DHT22;35317;51.978;6.296;2023-06-19T01:09:07;22.70;68.40
49441;DHT22;35317;51.978;6.296;2023-06-19T01:14:14;22.70;68.60
49441;DHT22;35317;51.978;6.296;2023-06-19T01:19:20;22.80;68.90
49441;DHT22;35317;51.978;6.296;2023-06-19T01:24:21;22.90;68.80
49441;DHT22;35317;51.978;6.296;2023-06-19T01:29:22;22.90;69.40
49441;DHT22;35317;51.978;6.296;2023-06-19T01:34:26;23.00;69.10
49441;DHT22;35317;51.978;6.296;2023-06-19T01:39:28;23.00;69.20
49441;DHT22;35317;51.978;6.296;2023-06-19T01:44:29;23.00;69.10
49441;DHT22;35317;51.978;6.296;2023-06-19T01:49:29;23.00;69.20
49441;DHT22;35317;51.978;6.296;2023-06-19T01:54:30;23.00;69.20
49441;DHT22;35317;51.978;6.296;2023-06-19T01:59:31;23.00;69.20
49441;DHT22;35317;51.978;6.296;2023-06-19T02:04:32;22.90;69.30
49441;DHT22;35317;51.978;6.296;2023-06-19T02:09:33;22.80;69.40
49441;DHT22;35317;51.978;6.296;2023-06-19T02:14:34;22.70;69.50
49441;DHT22;35317;51.978;6.296;2023-06-19T02:19:35;22.60;69.70
49441;DHT22;35317;51.978;6.296;2023-06-19T02:24:36;22.60;69.90
49441;DHT22;35317;51.978;6.296;2023-06-19T02:29:37;22.50;70.00
49441;DHT22;35317;51.978;6.296;2023-06-19T02:34:38;22.50;70.10
49441;DHT22;35317;51.978;6.296;2023-06-19T02:39:39;22.50;70.40
49441;DHT22;35317;51.978;6.296;2023-06-19T02:44:40;22.50;70.50
49441;DHT22;35317;51.978;6.296;2023-06-19T02:49:41;22.40;70.80
49441;DHT22;35317;51.978;6.296;2023-06-19T02:54:41;22.30;71.30
49441;DHT22;35317;51.978;6.296;2023-06-19T02:59:43;22.30;71.60
49441;DHT22;35317;51.978;6.296;2023-06-19T03:04:44;22.10;72.10
49441;DHT22;35317;51.978;6.296;2023-06-19T03:09:45;22.10;72.80
49441;DHT22;35317;51.978;6.296;2023-06-19T03:14:45;22.00;73.50
49441;DHT22;35317;51.978;6.296;2023-06-19T03:19:46;21.90;74.10
49441;DHT22;35317;51.978;6.296;2023-06-19T03:24:47;21.80;74.60
49441;DHT22;35317;51.978;6.296;2023-06-19T03:29:48;21.70;75.10
49441;DHT22;35317;51.978;6.296;2023-06-19T03:34:49;21.60;76.20
49441;DHT22;35317;51.978;6.296;2023-06-19T03:39:50;21.50;76.70
49441;DHT22;35317;51.978;6.296;2023-06-19T03:44:50;21.40;77.10
49441;DHT22;35317;51.978;6.296;2023-06-19T03:49:51;21.30;77.70
49441;DHT22;35317;51.978;6.296;2023-06-19T03:54:52;21.20;78.40
49441;DHT22;35317;51.978;6.296;2023-06-19T03:59:53;21.10;78.90
49441;DHT22;35317;51.978;6.296;2023-06-19T04:04:54;21.00;79.20
49441;DHT22;35317;51.978;6.296;2023-06-19T04:09:55;21.00;79.60
49441;DHT22;35317;51.978;6.296;2023-06-19T04:14:55;21.00;79.80
49441;DHT22;35317;51.978;6.296;2023-06-19T04:19:56;20.90;80.10
49441;DHT22;35317;51.978;6.296;2023-06-19T04:24:57;20.90;80.50
49441;DHT22;35317;51.978;6.296;2023-06-19T04:29:58;20.80;80.90
49441;DHT22;35317;51.978;6.296;2023-06-19T04:34:58;20.90;81.50
49441;DHT22;35317;51.978;6.296;2023-06-19T04:39:59;21.00;81.60
49441;DHT22;35317;51.978;6.296;2023-06-19T04:45:00;21.00;81.90
49441;DHT22;35317;51.978;6.296;2023-06-19T04:50:01;21.10;82.30
49441;DHT22;35317;51.978;6.296;2023-06-19T04:55:02;21.20;82.40
49441;DHT22;35317;51.978;6.296;2023-06-19T05:00:04;21.30;82.40
49441;DHT22;35317;51.978;6.296;2023-06-19T05:05:16;21.40;82.60
49441;DHT22;35317;51.978;6.296;2023-06-19T05:22:58;21.70;82.90
49441;DHT22;35317;51.978;6.296;2023-06-19T05:28:09;21.80;82.60
49441;DHT22;35317;51.978;6.296;2023-06-19T05:33:13;22.00;82.60
49441;DHT22;35317;51.978;6.296;2023-06-19T05:38:22;22.10;82.30
49441;DHT22;35317;51.978;6.296;2023-06-19T05:43:26;22.10;82.40
49441;DHT22;35317;51.978;6.296;2023-06-19T05:48:27;22.10;82.40
49441;DHT22;35317;51.978;6.296;2023-06-19T05:53:28;22.00;82.70
49441;DHT22;35317;51.978;6.296;2023-06-19T05:58:31;21.90;83.00
49441;DHT22;35317;51.978;6.296;2023-06-19T06:03:32;21.90;83.80
49441;DHT22;35317;51.978;6.296;2023-06-19T06:08:33;21.90;83.50
49441;DHT22;35317;51.978;6.296;2023-06-19T06:13:34;22.00;83.60
49441;DHT22;35317;51.978;6.296;2023-06-19T06:18:34;22.10;83.60
49441;DHT22;35317;51.978;6.296;2023-06-19T06:23:35;22.20;83.70
49441;DHT22;35317;51.978;6.296;2023-06-19T06:28:36;22.40;83.40
49441;DHT22;35317;51.978;6.296;2023-06-19T06:33:39;22.50;83.10
49441;DHT22;35317;51.978;6.296;2023-06-19T06:38:39;22.70;83.10
49441;DHT22;35317;51.978;6.296;2023-06-19T06:43:41;22.80;82.80
49441;DHT22;35317;51.978;6.296;2023-06-19T06:48:43;23.00;82.30
49441;DHT22;35317;51.978;6.296;2023-06-19T06:53:44;23.00;82.00
49441;DHT22;35317;51.978;6.296;2023-06-19T06:58:45;23.00;82.20
49441;DHT22;35317;51.978;6.296;2023-06-19T07:03:47;22.80;82.60
49441;DHT22;35317;51.978;6.296;2023-06-19T07:08:48;22.70;82.90
49441;DHT22;35317;51.978;6.296;2023-06-19T07:13:49;22.50;83.10
49441;DHT22;35317;51.978;6.296;2023-06-19T07:18:54;22.40;83.60
49441;DHT22;35317;51.978;6.296;2023-06-19T07:37:04;22.20;84.80
49441;DHT22;35317;51.978;6.296;2023-06-19T07:42:35;22.40;84.40
49441;DHT22;35317;51.978;6.296;2023-06-19T07:48:03;22.70;83.80
49441;DHT22;35317;51.978;6.296;2023-06-19T07:53:32;22.90;83.20
49441;DHT22;35317;51.978;6.296;2023-06-19T07:58:39;23.10;82.40
49441;DHT22;35317;51.978;6.296;2023-06-19T08:04:11;23.20;81.90
49441;DHT22;35317;51.978;6.296;2023-06-19T08:09:56;23.30;81.40
49441;DHT22;35317;51.978;6.296;2023-06-19T08:15:03;23.60;80.90
49441;DHT22;35317;51.978;6.296;2023-06-19T08:21:08;23.80;80.10
49441;DHT22;35317;51.978;6.296;2023-06-19T08:26:10;24.20;78.90
49441;DHT22;35317;51.978;6.296;2023-06-19T08:31:11;24.40;77.80
49441;DHT22;35317;51.978;6.296;2023-06-19T08:36:12;24.50;76.70
49441;DHT22;35317;51.978;6.296;2023-06-19T08:41:38;24.50;75.80
49441;DHT22;35317;51.978;6.296;2023-06-19T08:46:39;24.50;75.10
49441;DHT22;35317;51.978;6.296;2023-06-19T08:51:41;24.40;75.60
49441;DHT22;35317;51.978;6.296;2023-06-19T08:56:42;24.50;74.50
49441;DHT22;35317;51.978;6.296;2023-06-19T09:01:51;24.50;73.80
49441;DHT22;35317;51.978;6.296;2023-06-19T09:06:56;24.60;73.30
49441;DHT22;35317;51.978;6.296;2023-06-19T09:12:11;24.70;72.70
49441;DHT22;35317;51.978;6.296;2023-06-19T09:17:20;24.80;72.10
49441;DHT22;35317;51.978;6.296;2023-06-19T09:22:22;24.80;71.80
49441;DHT22;35317;51.978;6.296;2023-06-19T09:27:31;24.90;70.90
49441;DHT22;35317;51.978;6.296;2023-06-19T09:33:06;24.90;70.50
49441;DHT22;35317;51.978;6.296;2023-06-19T09:38:08;24.90;69.90
49441;DHT22;35317;51.978;6.296;2023-06-19T09:43:25;25.00;70.10
49441;DHT22;35317;51.978;6.296;2023-06-19T09:49:12;25.30;69.20
49441;DHT22;35317;51.978;6.296;2023-06-19T09:54:15;25.60;68.30
49441;DHT22;35317;51.978;6.296;2023-06-19T09:59:19;25.80;68.00
49441;DHT22;35317;51.978;6.296;2023-06-19T10:04:46;25.80;66.80
49441;DHT22;35317;51.978;6.296;2023-06-19T10:10:07;25.60;66.70
49441;DHT22;35317;51.978;6.296;2023-06-19T10:15:10;25.60;66.80
49441;DHT22;35317;51.978;6.296;2023-06-19T10:25:34;25.90;65.90
49441;DHT22;35317;51.978;6.296;2023-06-19T10:30:39;26.20;65.70
49441;DHT22;35317;51.978;6.296;2023-06-19T10:35:41;26.50;64.90
49441;DHT22;35317;51.978;6.296;2023-06-19T10:40:42;26.80;63.80
49441;DHT22;35317;51.978;6.296;2023-06-19T10:45:44;27.00;63.30
49441;DHT22;35317;51.978;6.296;2023-06-19T10:50:45;27.30;62.60
49441;DHT22;35317;51.978;6.296;2023-06-19T10:55:46;27.50;61.70
49441;DHT22;35317;51.978;6.296;2023-06-19T11:00:48;27.40;61.30
49441;DHT22;35317;51.978;6.296;2023-06-19T11:05:49;27.20;61.20
49441;DHT22;35317;51.978;6.296;2023-06-19T11:10:50;27.10;61.20
49441;DHT22;35317;51.978;6.296;2023-06-19T11:15:51;27.30;60.90
49441;DHT22;35317;51.978;6.296;2023-06-19T11:20:52;27.50;61.20
49441;DHT22;35317;51.978;6.296;2023-06-19T11:25:53;27.60;61.00
49441;DHT22;35317;51.978;6.296;2023-06-19T11:31:02;27.70;60.00
49441;DHT22;35317;51.978;6.296;2023-06-19T11:36:03;27.80;58.90
49441;DHT22;35317;51.978;6.296;2023-06-19T11:41:05;27.80;58.70
49441;DHT22;35317;51.978;6.296;2023-06-19T11:46:07;27.90;58.60
49441;DHT22;35317;51.978;6.296;2023-06-19T11:51:08;27.90;58.70
49441;DHT22;35317;51.978;6.296;2023-06-19T11:56:09;27.80;58.50
49441;DHT22;35317;51.978;6.296;2023-06-19T12:01:10;28.00;57.80
49441;DHT22;35317;51.978;6.296;2023-06-19T12:06:11;28.10;57.00
49441;DHT22;35317;51.978;6.296;2023-06-19T12:11:12;28.50;56.70
49441;DHT22;35317;51.978;6.296;2023-06-19T12:16:14;28.80;56.60
49441;DHT22;35317;51.978;6.296;2023-06-19T12:21:15;29.10;55.90
49441;DHT22;35317;51.978;6.296;2023-06-19T12:26:16;29.40;54.90
49441;DHT22;35317;51.978;6.296;2023-06-19T12:31:17;29.70;54.00
49441;DHT22;35317;51.978;6.296;2023-06-19T12:36:18;29.90;53.20
49441;DHT22;35317;51.978;6.296;2023-06-19T12:41:22;30.00;53.10
49441;DHT22;35317;51.978;6.296;2023-06-19T12:46:23;30.10;52.40
49441;DHT22;35317;51.978;6.296;2023-06-19T12:51:24;30.20;52.20
49441;DHT22;35317;51.978;6.296;2023-06-19T12:56:25;30.10;52.30
49441;DHT22;35317;51.978;6.296;2023-06-19T13:01:26;30.20;52.00
49441;DHT22;35317;51.978;6.296;2023-06-19T13:06:27;30.30;51.40
49441;DHT22;35317;51.978;6.296;2023-06-19T13:11:28;30.30;51.20
49441;DHT22;35317;51.978;6.296;2023-06-19T13:16:31;30.40;51.00
49441;DHT22;35317;51.978;6.296;2023-06-19T13:21:32;30.60;50.90
49441;DHT22;35317;51.978;6.296;2023-06-19T13:26:32;30.70;50.20
49441;DHT22;35317;51.978;6.296;2023-06-19T13:31:33;30.70;49.90
49441;DHT22;35317;51.978;6.296;2023-06-19T13:36:34;30.70;49.70
49441;DHT22;35317;51.978;6.296;2023-06-19T13:41:35;30.70;49.10
49441;DHT22;35317;51.978;6.296;2023-06-19T13:46:37;30.80;48.80
49441;DHT22;35317;51.978;6.296;2023-06-19T13:51:38;31.00;48.80
49441;DHT22;35317;51.978;6.296;2023-06-19T13:56:39;31.00;48.60
49441;DHT22;35317;51.978;6.296;2023-06-19T14:01:41;31.10;48.60
49441;DHT22;35317;51.978;6.296;2023-06-19T14:06:41;31.10;48.40
49441;DHT22;35317;51.978;6.296;2023-06-19T14:11:44;31.20;48.30
49441;DHT22;35317;51.978;6.296;2023-06-19T14:16:44;31.30;47.90
49441;DHT22;35317;51.978;6.296;2023-06-19T14:21:45;31.40;47.70
49441;DHT22;35317;51.978;6.296;2023-06-19T14:26:46;31.50;47.30
49441;DHT22;35317;51.978;6.296;2023-06-19T14:31:47;31.70;47.10
49441;DHT22;35317;51.978;6.296;2023-06-19T14:36:48;31.60;46.80
49441;DHT22;35317;51.978;6.296;2023-06-19T14:41:48;31.50;46.80
49441;DHT22;35317;51.978;6.296;2023-06-19T14:46:49;31.40;46.90
49441;DHT22;35317;51.978;6.296;2023-06-19T14:51:50;31.50;46.90
49441;DHT22;35317;51.978;6.296;2023-06-19T14:56:51;31.60;46.50
49441;DHT22;35317;51.978;6.296;2023-06-19T15:01:52;31.70;46.00
49441;DHT22;35317;51.978;6.296;2023-06-19T15:06:52;31.70;45.90
49441;DHT22;35317;51.978;6.296;2023-06-19T15:11:53;31.90;45.60
49441;DHT22;35317;51.978;6.296;2023-06-19T15:16:54;31.90;45.20
49441;DHT22;35317;51.978;6.296;2023-06-19T15:21:55;32.00;45.00
49441;DHT22;35317;51.978;6.296;2023-06-19T15:26:56;32.00;44.60
49441;DHT22;35317;51.978;6.296;2023-06-19T15:31:58;32.00;44.50
49441;DHT22;35317;51.978;6.296;2023-06-19T15:36:59;32.10;44.30
49441;DHT22;35317;51.978;6.296;2023-06-19T15:41:59;32.20;44.50
49441;DHT22;35317;51.978;6.296;2023-06-19T15:47:00;32.20;44.40
49441;DHT22;35317;51.978;6.296;2023-06-19T15:52:01;32.30;44.40
49441;DHT22;35317;51.978;6.296;2023-06-19T15:57:03;32.40;44.50
49441;DHT22;35317;51.978;6.296;2023-06-19T16:02:04;32.50;44.20
49441;DHT22;35317;51.978;6.296;2023-06-19T16:07:05;32.50;44.20
49441;DHT22;35317;51.978;6.296;2023-06-19T16:12:06;32.50;44.20
49441;DHT22;35317;51.978;6.296;2023-06-19T16:17:07;32.40;44.20
49441;DHT22;35317;51.978;6.296;2023-06-19T16:22:08;32.30;44.40
49441;DHT22;35317;51.978;6.296;2023-06-19T16:27:10;32.50;44.40
49441;DHT22;35317;51.978;6.296;2023-06-19T16:32:11;32.60;44.20
49441;DHT22;35317;51.978;6.296;2023-06-19T16:37:12;32.60;44.10
49441;DHT22;35317;51.978;6.296;2023-06-19T16:42:13;32.50;44.00
49441;DHT22;35317;51.978;6.296;2023-06-19T16:47:15;32.30;44.10
49441;DHT22;35317;51.978;6.296;2023-06-19T16:52:16;32.10;44.40
49441;DHT22;35317;51.978;6.296;2023-06-19T16:57:17;31.90;44.60
49441;DHT22;35317;51.978;6.296;2023-06-19T17:02:18;31.60;44.70
49441;DHT22;35317;51.978;6.296;2023-06-19T17:07:19;31.30;45.30
49441;DHT22;35317;51.978;6.296;2023-06-19T17:12:19;31.10;45.60
49441;DHT22;35317;51.978;6.296;2023-06-19T17:17:20;30.80;46.20
49441;DHT22;35317;51.978;6.296;2023-06-19T17:22:21;30.60;46.50
49441;DHT22;35317;51.978;6.296;2023-06-19T17:27:22;30.40;46.70
49441;DHT22;35317;51.978;6.296;2023-06-19T17:32:23;30.30;47.40
49441;DHT22;35317;51.978;6.296;2023-06-19T17:37:23;30.00;47.70
49441;DHT22;35317;51.978;6.296;2023-06-19T17:42:24;29.70;48.00
49441;DHT22;35317;51.978;6.296;2023-06-19T17:47:25;29.50;48.50
49441;DHT22;35317;51.978;6.296;2023-06-19T17:52:33;29.30;48.90
49441;DHT22;35317;51.978;6.296;2023-06-19T17:57:35;29.10;49.30
49441;DHT22;35317;51.978;6.296;2023-06-19T18:02:36;29.00;49.50
49441;DHT22;35317;51.978;6.296;2023-06-19T18:07:37;28.90;49.70
49441;DHT22;35317;51.978;6.296;2023-06-19T18:12:38;28.70;49.90
49441;DHT22;35317;51.978;6.296;2023-06-19T18:17:39;28.60;50.10
49441;DHT22;35317;51.978;6.296;2023-06-19T18:22:39;28.50;50.50
49441;DHT22;35317;51.978;6.296;2023-06-19T18:27:40;28.40;50.60
49441;DHT22;35317;51.978;6.296;2023-06-19T18:32:41;28.30;50.90
49441;DHT22;35317;51.978;6.296;2023-06-19T18:37:42;28.10;51.30
49441;DHT22;35317;51.978;6.296;2023-06-19T18:42:42;28.00;52.10
49441;DHT22;35317;51.978;6.296;2023-06-19T18:47:43;27.80;52.00
49441;DHT22;35317;51.978;6.296;2023-06-19T18:52:44;27.60;52.30
49441;DHT22;35317;51.978;6.296;2023-06-19T18:57:45;27.40;52.70
49441;DHT22;35317;51.978;6.296;2023-06-19T19:02:48;27.30;53.10
49441;DHT22;35317;51.978;6.296;2023-06-19T19:07:50;27.10;53.10
49441;DHT22;35317;51.978;6.296;2023-06-19T19:12:51;26.90;53.60
49441;DHT22;35317;51.978;6.296;2023-06-19T19:17:55;26.70;54.10
49441;DHT22;35317;51.978;6.296;2023-06-19T19:22:56;26.50;54.80
49441;DHT22;35317;51.978;6.296;2023-06-19T19:28:04;26.30;56.00
49441;DHT22;35317;51.978;6.296;2023-06-19T19:33:04;26.00;56.10
49441;DHT22;35317;51.978;6.296;2023-06-19T19:38:05;25.70;57.10
49441;DHT22;35317;51.978;6.296;2023-06-19T19:43:35;25.50;58.10
49441;DHT22;35317;51.978;6.296;2023-06-19T19:49:32;25.20;58.60
49441;DHT22;35317;51.978;6.296;2023-06-19T19:54:34;24.90;59.90
49441;DHT22;35317;51.978;6.296;2023-06-19T19:59:39;24.70;60.00
49441;DHT22;35317;51.978;6.296;2023-06-19T20:05:10;24.50;60.60
49441;DHT22;35317;51.978;6.296;2023-06-19T20:10:20;24.30;61.80
49441;DHT22;35317;51.978;6.296;2023-06-19T20:16:15;24.10;62.20
49441;DHT22;35317;51.978;6.296;2023-06-19T20:21:44;23.90;62.50
49441;DHT22;35317;51.978;6.296;2023-06-19T20:26:49;23.60;63.40
49441;DHT22;35317;51.978;6.296;2023-06-19T20:32:17;23.40;63.90
49441;DHT22;35317;51.978;6.296;2023-06-19T20:37:19;23.20;64.80
49441;DHT22;35317;51.978;6.296;2023-06-19T20:49:02;22.90;65.90
49441;DHT22;35317;51.978;6.296;2023-06-19T20:54:04;22.70;66.00
49441;DHT22;35317;51.978;6.296;2023-06-19T20:59:05;22.60;66.70
49441;DHT22;35317;51.978;6.296;2023-06-19T21:04:06;22.50;67.20
49441;DHT22;35317;51.978;6.296;2023-06-19T21:09:07;22.40;67.60
49441;DHT22;35317;51.978;6.296;2023-06-19T21:14:08;22.30;68.70
49441;DHT22;35317;51.978;6.296;2023-06-19T21:19:09;22.20;68.70
49441;DHT22;35317;51.978;6.296;2023-06-19T21:24:10;22.20;69.10
49441;DHT22;35317;51.978;6.296;2023-06-19T21:29:11;22.10;69.50
49441;DHT22;35317;51.978;6.296;2023-06-19T21:34:13;22.10;69.70
49441;DHT22;35317;51.978;6.296;2023-06-19T21:39:13;22.00;69.90
49441;DHT22;35317;51.978;6.296;2023-06-19T21:44:14;22.00;70.10
49441;DHT22;35317;51.978;6.296;2023-06-19T21:49:15;22.00;70.40
49441;DHT22;35317;51.978;6.296;2023-06-19T21:54:16;22.00;70.60
49441;DHT22;35317;51.978;6.296;2023-06-19T21:59:17;22.00;70.70
49441;DHT22;35317;51.978;6.296;2023-06-19T22:04:18;22.00;70.80
49441;DHT22;35317;51.978;6.296;2023-06-19T22:09:19;22.00;71.00
49441;DHT22;35317;51.978;6.296;2023-06-19T22:14:19;22.00;71.10
49441;DHT22;35317;51.978;6.296;2023-06-19T22:19:21;22.00;71.30
49441;DHT22;35317;51.978;6.296;2023-06-19T22:24:23;21.90;71.40
49441;DHT22;35317;51.978;6.296;2023-06-19T22:29:24;21.90;71.50
49441;DHT22;35317;51.978;6.296;2023-06-19T22:34:25;21.90;71.40
49441;DHT22;35317;51.978;6.296;2023-06-19T22:39:26;21.90;71.50
49441;DHT22;35317;51.978;6.296;2023-06-19T22:44:27;21.90;71.50
49441;DHT22;35317;51.978;6.296;2023-06-19T22:49:28;21.90;71.50
49441;DHT22;35317;51.978;6.296;2023-06-19T22:54:29;21.80;71.40
49441;DHT22;35317;51.978;6.296;2023-06-19T22:59:30;21.80;71.30
49441;DHT22;35317;51.978;6.296;2023-06-19T23:04:31;21.80;71.40
49441;DHT22;35317;51.978;6.296;2023-06-19T23:09:31;21.80;71.40
49441;DHT22;35317;51.978;6.296;2023-06-19T23:14:32;21.80;71.30
49441;DHT22;35317;51.978;6.296;2023-06-19T23:19:33;21.80;71.40
49441;DHT22;35317;51.978;6.296;2023-06-19T23:24:34;21.70;71.30
49441;DHT22;35317;51.978;6.296;2023-06-19T23:29:35;21.70;71.40
49441;DHT22;35317;51.978;6.296;2023-06-19T23:34:36;21.70;71.40
49441;DHT22;35317;51.978;6.296;2023-06-19T23:39:37;21.60;71.30
49441;DHT22;35317;51.978;6.296;2023-06-19T23:44:38;21.60;71.10
49441;DHT22;35317;51.978;6.296;2023-06-19T23:49:38;21.60;71.10
49441;DHT22;35317;51.978;6.296;2023-06-19T23:54:41;21.60;71.00
49441;DHT22;35317;51.978;6.296;2023-06-19T23:59:42;21.50;70.90
